createdAt,value
2022-10-20T00:01:13.554Z,98695.84
2022-10-20T00:03:41.151Z,98706.88
2022-10-20T00:06:12.707Z,98700.94
2022-10-20T00:08:41.166Z,98703.78
2022-10-20T00:11:10.667Z,98691.13
2022-10-20T00:13:39.027Z,98684.53
2022-10-20T00:16:06.785Z,98670.50
2022-10-20T00:18:34.792Z,98673.88
2022-10-20T00:21:07.737Z,98659.81
2022-10-20T00:23:35.583Z,98656.66
2022-10-20T00:26:15.668Z,98656.66
2022-10-20T00:28:43.233Z,98656.16
2022-10-20T00:31:10.678Z,98650.31
2022-10-20T00:33:37.659Z,98653.09
2022-10-20T00:36:07.969Z,98650.56
2022-10-20T00:38:35.770Z,98648.75
2022-10-20T00:41:03.465Z,98649.50
2022-10-20T00:43:52.968Z,98656.59
2022-10-20T00:46:40.181Z,98650.16
2022-10-20T00:49:20.999Z,98652.16
2022-10-20T00:51:49.938Z,98658.22
2022-10-20T00:54:26.159Z,98650.25
2022-10-20T00:56:56.034Z,98653.97
2022-10-20T00:59:28.509Z,98650.16
2022-10-20T01:01:56.536Z,98650.41
2022-10-20T01:04:24.899Z,98650.22
2022-10-20T01:06:51.815Z,98650.13
2022-10-20T01:09:18.845Z,98642.25
2022-10-20T01:12:10.752Z,98619.91
2022-10-20T01:18:09.673Z,98615.88
2022-10-20T01:21:13.858Z,98607.03
2022-10-20T01:23:51.646Z,98593.19
2022-10-20T01:26:38.144Z,98602.69
2022-10-20T01:29:49.539Z,98588.47
2022-10-20T01:32:28.616Z,98587.47
2022-10-20T01:35:41.360Z,98581.19
2022-10-20T01:38:12.591Z,98575.88
2022-10-20T01:41:14.746Z,98574.94
2022-10-20T01:43:45.840Z,98575.38
2022-10-20T01:46:16.039Z,98567.41
2022-10-20T01:48:44.235Z,98566.75
2022-10-20T01:51:11.151Z,98569.75
2022-10-20T01:53:38.253Z,98570.03
2022-10-20T01:56:06.794Z,98577.38
2022-10-20T01:59:03.403Z,98563.09
2022-10-20T02:02:10.297Z,98565.44
2022-10-20T02:05:13.515Z,98566.22
2022-10-20T02:07:43.051Z,98566.69
2022-10-20T02:10:19.928Z,98556.63
2022-10-20T02:12:55.007Z,98541.28
2022-10-20T02:15:27.057Z,98546.47
2022-10-20T02:18:01.217Z,98539.81
2022-10-20T02:20:31.673Z,98544.38
2022-10-20T02:23:00.119Z,98538.97
2022-10-20T02:25:29.727Z,98540.38
2022-10-20T02:30:31.353Z,98545.56
2022-10-20T02:32:58.306Z,98547.06
2022-10-20T02:35:31.783Z,98545.72
2022-10-20T02:37:59.190Z,98539.03
2022-10-20T02:40:27.361Z,98534.81
2022-10-20T02:42:54.598Z,98523.13
2022-10-20T02:45:21.599Z,98518.38
2022-10-20T02:47:48.516Z,98511.66
2022-10-20T02:50:17.062Z,98508.06
2022-10-20T02:52:44.318Z,98505.06
2022-10-20T02:55:11.404Z,98517.63
2022-10-20T02:57:38.842Z,98524.25
2022-10-20T03:00:07.613Z,98522.72
2022-10-20T03:02:34.577Z,98533.09
2022-10-20T03:05:01.707Z,98536.31
2022-10-20T03:07:28.628Z,98530.00
2022-10-20T03:09:55.532Z,98541.38
2022-10-20T03:12:22.465Z,98536.25
2022-10-20T03:14:49.549Z,98527.19
2022-10-20T03:17:16.461Z,98531.31
2022-10-20T03:19:43.396Z,98534.16
2022-10-20T03:22:10.315Z,98538.09
2022-10-20T03:24:37.317Z,98533.75
2022-10-20T03:27:04.524Z,98532.22
2022-10-20T03:29:31.440Z,98535.81
2022-10-20T03:31:58.416Z,98531.00
2022-10-20T03:34:25.458Z,98534.75
2022-10-20T03:36:52.474Z,98535.38
2022-10-20T03:39:19.433Z,98550.59
2022-10-20T03:41:46.354Z,98551.00
2022-10-20T03:44:13.468Z,98539.72
2022-10-20T03:46:40.393Z,98531.56
2022-10-20T03:49:07.345Z,98532.19
2022-10-20T03:51:34.275Z,98533.38
2022-10-20T03:54:01.172Z,98538.34
2022-10-20T03:56:28.115Z,98537.63
2022-10-20T03:58:55.192Z,98535.75
2022-10-20T04:01:32.345Z,98537.94
2022-10-20T04:03:59.419Z,98537.66
2022-10-20T04:06:26.571Z,98540.66
2022-10-20T04:08:53.560Z,98534.06
2022-10-20T04:11:20.699Z,98517.63
2022-10-20T04:13:47.620Z,98516.00
2022-10-20T04:16:14.587Z,98508.94
2022-10-20T04:18:41.501Z,98496.03
2022-10-20T04:21:08.398Z,98492.75
2022-10-20T04:23:35.363Z,98480.75
2022-10-20T04:26:11.571Z,98482.69
2022-10-20T04:28:38.638Z,98491.47
2022-10-20T04:31:06.125Z,98491.84
2022-10-20T04:33:33.570Z,98485.63
2022-10-20T04:36:03.445Z,98478.06
2022-10-20T04:38:32.113Z,98475.09
2022-10-20T04:41:04.086Z,98464.63
2022-10-20T04:43:33.363Z,98465.56
2022-10-20T04:46:08.330Z,98466.88
2022-10-20T04:48:37.542Z,98469.25
2022-10-20T04:51:10.996Z,98469.97
2022-10-20T04:53:38.542Z,98471.53
2022-10-20T04:56:08.304Z,98469.16
2022-10-20T04:58:36.022Z,98472.00
2022-10-20T05:01:09.562Z,98463.75
2022-10-20T05:03:37.358Z,98463.59
2022-10-20T05:06:14.719Z,98457.88
2022-10-20T05:08:46.614Z,98461.84
2022-10-20T05:11:16.008Z,98461.56
2022-10-20T05:13:43.450Z,98464.22
2022-10-20T05:16:12.067Z,98459.28
2022-10-20T05:18:40.214Z,98449.16
2022-10-20T05:21:10.702Z,98449.75
2022-10-20T05:23:39.405Z,98443.97
2022-10-20T05:26:13.571Z,98447.59
2022-10-20T05:28:44.136Z,98440.84
2022-10-20T05:31:11.804Z,98438.31
2022-10-20T05:33:40.096Z,98441.94
2022-10-20T05:36:10.279Z,98436.66
2022-10-20T05:38:37.639Z,98423.28
2022-10-20T05:41:13.557Z,98427.53
2022-10-20T05:43:41.169Z,98431.72
2022-10-20T05:46:09.367Z,98416.31
2022-10-20T05:48:40.706Z,98420.16
2022-10-20T05:51:17.757Z,98421.03
2022-10-20T05:53:46.962Z,98418.88
2022-10-20T05:56:17.378Z,98417.78
2022-10-20T05:58:45.424Z,98408.16
2022-10-20T06:01:19.723Z,98415.28
2022-10-20T06:04:00.194Z,98415.00
2022-10-20T06:06:30.149Z,98417.19
2022-10-20T06:09:00.861Z,98418.97
2022-10-20T06:11:27.961Z,98412.13
2022-10-20T06:13:57.042Z,98411.31
2022-10-20T06:16:26.149Z,98419.13
2022-10-20T06:18:53.767Z,98421.53
2022-10-20T06:21:25.104Z,98411.91
2022-10-20T06:23:53.153Z,98415.75
2022-10-20T06:26:25.953Z,98413.78
2022-10-20T06:29:03.646Z,98413.41
2022-10-20T06:31:43.439Z,98420.25
2022-10-20T06:34:17.045Z,98427.72
2022-10-20T06:36:45.583Z,98429.16
2022-10-20T06:39:17.370Z,98426.25
2022-10-20T06:41:50.203Z,98431.34
2022-10-20T06:44:24.260Z,98436.28
2022-10-20T06:46:52.559Z,98431.53
2022-10-20T06:49:20.811Z,98427.41
2022-10-20T06:51:47.757Z,98428.97
2022-10-20T06:54:14.953Z,98427.75
2022-10-20T06:56:41.910Z,98425.28
2022-10-20T06:59:08.856Z,98435.72
2022-10-20T07:01:38.269Z,98429.31
2022-10-20T07:04:14.099Z,98418.88
2022-10-20T07:06:43.980Z,98407.94
2022-10-20T07:09:16.453Z,98413.84
2022-10-20T07:11:43.911Z,98418.13
2022-10-20T07:14:13.858Z,98416.50
2022-10-20T07:16:40.974Z,98418.19
2022-10-20T07:19:07.868Z,98421.06
2022-10-20T07:21:38.386Z,98432.59
2022-10-20T07:24:09.273Z,98431.19
2022-10-20T07:26:40.249Z,98432.31
2022-10-20T07:29:07.483Z,98431.53
2022-10-20T07:31:41.900Z,98432.78
2022-10-20T07:34:24.309Z,98434.69
2022-10-20T07:36:52.376Z,98429.94
2022-10-20T07:39:19.306Z,98426.00
2022-10-20T07:41:47.775Z,98414.31
2022-10-20T07:44:15.354Z,98410.41
2022-10-20T07:46:42.551Z,98419.53
2022-10-20T07:51:56.474Z,98439.44
2022-10-20T07:54:23.444Z,98434.97
2022-10-20T07:56:50.365Z,98438.03
2022-10-20T07:59:17.639Z,98429.56
2022-10-20T08:01:44.784Z,98431.59
2022-10-20T08:04:11.905Z,98426.19
2022-10-20T08:06:39.442Z,98421.78
2022-10-20T08:09:07.500Z,98412.13
2022-10-20T08:11:35.931Z,98418.34
2022-10-20T08:14:03.386Z,98429.75
2022-10-20T08:16:30.499Z,98421.31
2022-10-20T08:19:08.753Z,98426.13
2022-10-20T08:21:35.783Z,98417.97
2022-10-20T08:24:03.793Z,98408.41
2022-10-20T08:26:30.735Z,98402.44
2022-10-20T08:28:57.682Z,98398.53
2022-10-20T08:31:24.689Z,98411.00
2022-10-20T08:33:53.140Z,98401.50
2022-10-20T08:36:21.027Z,98409.94
2022-10-20T08:38:48.860Z,98403.66
2022-10-20T08:41:34.898Z,98402.69
2022-10-20T08:44:23.588Z,98398.16
2022-10-20T08:46:50.838Z,98395.31
2022-10-20T08:49:31.441Z,98388.78
2022-10-20T08:51:58.834Z,98389.97
2022-10-20T08:54:25.876Z,98384.47
2022-10-20T08:56:53.281Z,98398.63
2022-10-20T08:59:39.191Z,98402.00
2022-10-20T09:02:17.008Z,98401.13
2022-10-20T09:04:57.072Z,98398.69
2022-10-20T09:07:31.456Z,98404.53
2022-10-20T09:10:36.095Z,98400.81
2022-10-20T09:13:11.394Z,98399.44
2022-10-20T09:15:38.765Z,98398.22
2022-10-20T09:18:11.386Z,98396.88
2022-10-20T09:20:56.453Z,98407.03
2022-10-20T09:23:46.370Z,98421.97
2022-10-20T09:26:30.532Z,98418.00
2022-10-20T09:29:14.061Z,98422.50
2022-10-20T09:31:46.810Z,98416.41
2022-10-20T09:34:34.805Z,98421.56
2022-10-20T09:37:13.166Z,98408.31
2022-10-20T09:39:58.954Z,98409.63
2022-10-20T09:42:30.757Z,98398.44
2022-10-20T09:45:08.270Z,98391.84
2022-10-20T09:47:35.576Z,98403.13
2022-10-20T09:50:06.697Z,98409.06
2022-10-20T09:52:47.426Z,98412.50
2022-10-20T09:55:34.279Z,98399.16
2022-10-20T09:58:04.354Z,98395.16
2022-10-20T10:00:38.690Z,98386.25
2022-10-20T10:03:23.817Z,98402.19
2022-10-20T10:06:00.906Z,98406.84
2022-10-20T10:08:41.771Z,98402.97
2022-10-20T10:11:18.891Z,98404.69
2022-10-20T10:13:49.724Z,98409.84
2022-10-20T10:16:20.882Z,98399.41
2022-10-20T10:19:08.336Z,98409.34
2022-10-20T10:22:02.063Z,98413.03
2022-10-20T10:24:28.861Z,98411.03
2022-10-20T10:26:57.025Z,98419.72
2022-10-20T10:29:30.530Z,98419.22
2022-10-20T10:32:25.367Z,98423.50
2022-10-20T10:35:22.471Z,98428.97
2022-10-20T10:37:49.582Z,98422.72
2022-10-20T10:40:25.932Z,98424.66
2022-10-20T10:43:29.482Z,98421.72
2022-10-20T10:46:26.197Z,98407.50
2022-10-20T10:49:21.155Z,98405.66
2022-10-20T10:52:38.661Z,98397.34
2022-10-20T10:55:17.324Z,98397.75
2022-10-20T10:58:08.090Z,98410.50
2022-10-20T11:01:01.192Z,98407.03
2022-10-20T11:04:11.162Z,98414.19
2022-10-20T11:06:44.988Z,98421.47
2022-10-20T11:09:51.986Z,98420.22
2022-10-20T11:12:24.500Z,98424.19
2022-10-20T11:15:04.836Z,98415.03
2022-10-20T11:18:15.495Z,98405.78
2022-10-20T11:21:20.274Z,98390.25
2022-10-20T11:24:12.323Z,98371.56
2022-10-20T11:26:47.666Z,98370.00
2022-10-20T11:29:44.897Z,98372.28
2022-10-20T11:32:14.541Z,98377.78
2022-10-20T11:35:16.502Z,98362.91
2022-10-20T11:38:09.514Z,98355.22
2022-10-20T11:40:41.559Z,98358.22
2022-10-20T11:43:31.946Z,98355.88
2022-10-20T11:46:19.934Z,98372.38
2022-10-20T11:48:53.623Z,98367.88
2022-10-20T11:52:00.604Z,98354.84
2022-10-20T11:55:07.441Z,98340.16
2022-10-20T11:58:10.368Z,98331.59
2022-10-20T12:00:58.876Z,98344.84
2022-10-20T12:03:41.509Z,98335.66
2022-10-20T12:06:22.924Z,98340.00
2022-10-20T12:09:20.664Z,98354.78
2022-10-20T12:11:59.552Z,98336.16
2022-10-20T12:14:38.072Z,98322.13
2022-10-20T12:17:20.157Z,98333.31
2022-10-20T12:19:51.658Z,98339.31
2022-10-20T12:22:18.547Z,98332.56
2022-10-20T12:24:54.271Z,98321.97
2022-10-20T12:27:29.584Z,98306.94
2022-10-20T12:30:38.284Z,98295.09
2022-10-20T12:33:21.478Z,98290.91
2022-10-20T12:36:14.773Z,98300.44
2022-10-20T12:38:43.305Z,98317.28
2022-10-20T12:41:34.825Z,98317.28
2022-10-20T12:44:12.842Z,98310.44
2022-10-20T12:46:51.499Z,98296.22
2022-10-20T12:49:35.369Z,98289.72
2022-10-20T12:52:05.036Z,98305.59
2022-10-20T12:54:42.807Z,98307.44
2022-10-20T12:57:44.065Z,98315.25
2022-10-20T13:00:19.630Z,98309.22
2022-10-20T13:02:54.923Z,98293.91
2022-10-20T13:05:48.194Z,98299.75
2022-10-20T13:08:21.102Z,98296.44
2022-10-20T13:10:49.332Z,98295.75
2022-10-20T13:13:19.233Z,98305.06
2022-10-20T13:15:47.422Z,98303.75
2022-10-20T13:18:27.262Z,98302.91
2022-10-20T13:21:20.486Z,98302.78
2022-10-20T13:24:02.752Z,98310.28
2022-10-20T13:26:38.102Z,98304.41
2022-10-20T13:29:36.151Z,98279.38
2022-10-20T13:32:33.973Z,98266.78
2022-10-20T13:35:24.164Z,98253.88
2022-10-20T13:38:31.010Z,98258.25
2022-10-20T13:41:07.551Z,98243.53
2022-10-20T13:43:56.803Z,98241.56
2022-10-20T13:47:08.213Z,98239.16
2022-10-20T13:50:06.009Z,98214.81
2022-10-20T13:52:39.500Z,98211.47
2022-10-20T13:55:08.963Z,98229.59
2022-10-20T13:57:36.390Z,98235.09
2022-10-20T14:00:30.261Z,98248.09
2022-10-20T14:02:58.688Z,98242.78
2022-10-20T14:05:28.105Z,98242.34
2022-10-20T14:07:55.513Z,98221.56
2022-10-20T14:10:23.803Z,98228.41
2022-10-20T14:12:52.080Z,98232.03
2022-10-20T14:15:33.423Z,98240.72
2022-10-20T14:18:07.941Z,98242.22
2022-10-20T14:20:37.761Z,98233.78
2022-10-20T14:23:06.077Z,98246.44
2022-10-20T14:25:33.478Z,98239.91
2022-10-20T14:28:03.900Z,98237.94
2022-10-20T14:30:40.034Z,98229.66
2022-10-20T14:33:14.826Z,98226.88
2022-10-20T14:35:50.972Z,98219.56
2022-10-20T14:38:26.328Z,98216.72
2022-10-20T14:40:57.134Z,98219.22
2022-10-20T14:43:42.903Z,98235.75
2022-10-20T14:46:13.261Z,98241.94
2022-10-20T14:48:49.606Z,98232.94
2022-10-20T14:51:40.847Z,98229.94
2022-10-20T14:54:19.992Z,98224.06
2022-10-20T14:57:00.279Z,98212.75
2022-10-20T14:59:31.594Z,98212.91
2022-10-20T15:02:18.832Z,98220.00
2022-10-20T15:04:48.582Z,98208.97
2022-10-20T15:07:25.808Z,98197.97
2022-10-20T15:10:15.403Z,98207.34
2022-10-20T15:12:46.196Z,98211.69
2022-10-20T15:15:13.063Z,98224.66
2022-10-20T15:17:53.106Z,98232.53
2022-10-20T15:20:32.455Z,98223.69
2022-10-20T15:23:08.064Z,98225.34
2022-10-20T15:25:52.632Z,98225.69
2022-10-20T15:28:46.414Z,98201.31
2022-10-20T15:31:13.355Z,98179.28
2022-10-20T15:33:41.614Z,98196.13
2022-10-20T15:36:22.848Z,98213.44
2022-10-20T15:38:50.584Z,98214.41
2022-10-20T15:41:22.166Z,98211.44
2022-10-20T15:43:49.390Z,98230.28
2022-10-20T15:46:17.915Z,98245.13
2022-10-20T15:48:45.613Z,98232.00
2022-10-20T15:51:19.059Z,98212.34
2022-10-20T15:53:48.474Z,98208.66
2022-10-20T15:56:16.793Z,98200.91
2022-10-20T15:58:43.782Z,98211.81
2022-10-20T16:01:16.797Z,98199.94
2022-10-20T16:03:45.087Z,98211.00
2022-10-20T16:06:14.882Z,98218.69
2022-10-20T16:08:46.959Z,98199.56
2022-10-20T16:11:15.655Z,98194.78
2022-10-20T16:13:42.758Z,98193.94
2022-10-20T16:16:14.685Z,98198.13
2022-10-20T16:18:41.780Z,98198.63
2022-10-20T16:21:09.449Z,98197.72
2022-10-20T16:23:42.134Z,98199.66
2022-10-20T16:26:13.067Z,98198.03
2022-10-20T16:28:40.057Z,98200.81
2022-10-20T16:31:14.159Z,98213.66
2022-10-20T16:33:41.385Z,98204.38
2022-10-20T16:36:11.665Z,98214.66
2022-10-20T16:38:40.272Z,98249.38
2022-10-20T16:41:11.101Z,98264.44
2022-10-20T16:43:40.226Z,98247.72
2022-10-20T16:46:10.029Z,98240.31
2022-10-20T16:48:39.017Z,98213.75
2022-10-20T16:51:12.324Z,98187.59
2022-10-20T16:53:39.368Z,98198.75
2022-10-20T16:56:07.683Z,98215.91
2022-10-20T16:58:35.384Z,98222.59
2022-10-20T17:01:06.394Z,98222.22
2022-10-20T17:03:33.647Z,98215.22
2022-10-20T17:06:06.966Z,98203.59
2022-10-20T17:08:36.749Z,98210.19
2022-10-20T17:11:15.379Z,98225.00
2022-10-20T17:13:42.721Z,98235.09
2022-10-20T17:16:16.355Z,98240.19
2022-10-20T17:18:43.555Z,98229.72
2022-10-20T17:21:11.592Z,98201.00
2022-10-20T17:23:42.796Z,98189.97
2022-10-20T17:26:15.925Z,98177.91
2022-10-20T17:28:43.354Z,98160.56
2022-10-20T17:31:13.048Z,98158.44
2022-10-20T17:33:40.521Z,98169.81
2022-10-20T17:36:08.441Z,98171.41
2022-10-20T17:38:36.031Z,98162.59
2022-10-20T17:41:08.992Z,98181.69
2022-10-20T17:43:36.308Z,98174.31
2022-10-20T17:46:10.941Z,98164.13
2022-10-20T17:48:38.612Z,98154.22
2022-10-20T17:51:12.113Z,98149.75
2022-10-20T17:53:45.614Z,98164.78
2022-10-20T17:56:16.959Z,98195.53
2022-10-20T17:58:46.287Z,98194.19
2022-10-20T18:01:35.851Z,98178.38
2022-10-20T18:04:15.948Z,98168.22
2022-10-20T18:06:44.153Z,98165.19
2022-10-20T18:09:15.570Z,98192.31
2022-10-20T18:11:51.593Z,98215.63
2022-10-20T18:14:18.912Z,98230.13
2022-10-20T18:16:46.778Z,98223.19
2022-10-20T18:19:18.564Z,98232.56
2022-10-20T18:21:46.137Z,98242.28
2022-10-20T18:24:14.996Z,98240.69
2022-10-20T18:26:42.198Z,98242.66
2022-10-20T18:29:10.501Z,98243.72
2022-10-20T18:31:40.381Z,98244.91
2022-10-20T18:34:11.858Z,98236.97
2022-10-20T18:36:42.059Z,98223.66
2022-10-20T18:39:13.331Z,98216.63
2022-10-20T18:41:43.002Z,98229.28
2022-10-20T18:44:16.899Z,98243.22
2022-10-20T18:46:46.036Z,98256.75
2022-10-20T18:49:16.564Z,98256.44
2022-10-20T18:51:47.411Z,98251.94
2022-10-20T18:54:15.625Z,98251.63
2022-10-20T18:56:43.033Z,98260.59
2022-10-20T18:59:14.038Z,98263.88
2022-10-20T19:01:41.246Z,98254.63
2022-10-20T19:04:10.314Z,98258.25
2022-10-20T19:06:44.103Z,98247.72
2022-10-20T19:09:18.011Z,98245.78
2022-10-20T19:11:46.048Z,98244.25
2022-10-20T19:14:14.117Z,98237.13
2022-10-20T19:16:46.040Z,98230.47
2022-10-20T19:19:14.897Z,98219.38
2022-10-20T19:21:41.817Z,98205.03
2022-10-20T19:24:14.740Z,98188.66
2022-10-20T19:26:56.796Z,98206.72
2022-10-20T19:29:29.525Z,98210.56
2022-10-20T19:32:01.977Z,98199.25
2022-10-20T19:34:39.725Z,98193.63
2022-10-20T19:37:08.684Z,98189.69
2022-10-20T19:39:41.970Z,98192.78
2022-10-20T19:42:10.101Z,98195.75
2022-10-20T19:44:37.362Z,98201.06
2022-10-20T19:47:05.538Z,98209.03
2022-10-20T19:49:33.276Z,98223.50
2022-10-20T19:52:00.279Z,98216.13
2022-10-20T19:54:27.654Z,98219.66
2022-10-20T19:56:54.656Z,98216.22
2022-10-20T19:59:21.987Z,98212.16
2022-10-20T20:01:49.910Z,98220.44
2022-10-20T20:04:17.070Z,98219.50
2022-10-20T20:06:44.189Z,98222.59
2022-10-20T20:09:12.547Z,98220.88
2022-10-20T20:11:39.994Z,98201.41
2022-10-20T20:14:19.199Z,98196.31
2022-10-20T20:16:47.491Z,98187.06
2022-10-20T20:19:17.080Z,98184.34
2022-10-20T20:21:44.437Z,98194.00
2022-10-20T20:24:14.290Z,98201.63
2022-10-20T20:26:41.623Z,98190.59
2022-10-20T20:29:09.443Z,98188.22
2022-10-20T20:31:36.434Z,98180.19
2022-10-20T20:34:03.401Z,98178.63
2022-10-20T20:36:30.401Z,98178.31
2022-10-20T20:38:59.429Z,98178.97
2022-10-20T20:41:30.082Z,98176.38
2022-10-20T20:43:57.157Z,98180.69
2022-10-20T20:46:29.075Z,98173.00
2022-10-20T20:49:00.269Z,98174.16
2022-10-20T20:51:33.709Z,98183.81
2022-10-20T20:54:02.077Z,98186.84
2022-10-20T20:56:29.109Z,98186.84
2022-10-20T20:58:56.023Z,98174.47
2022-10-20T21:01:33.886Z,98173.03
2022-10-20T21:04:04.436Z,98172.50
2022-10-20T21:06:49.514Z,98157.66
2022-10-20T21:09:19.770Z,98184.38
2022-10-20T21:11:48.738Z,98185.84
2022-10-20T21:14:16.040Z,98196.78
2022-10-20T21:16:43.164Z,98197.28
2022-10-20T21:19:11.036Z,98193.09
2022-10-20T21:21:44.694Z,98180.13
2022-10-20T21:24:12.836Z,98171.69
2022-10-20T21:26:40.345Z,98182.34
2022-10-20T21:29:07.677Z,98180.63
2022-10-20T21:31:34.799Z,98189.06
2022-10-20T21:34:04.332Z,98185.34
2022-10-20T21:36:34.656Z,98184.47
2022-10-20T21:39:05.081Z,98192.06
2022-10-20T21:41:35.195Z,98192.94
2022-10-20T21:44:05.556Z,98180.47
2022-10-20T21:46:47.088Z,98195.41
2022-10-20T21:49:20.376Z,98175.09
2022-10-20T21:51:52.208Z,98178.56
2022-10-20T21:54:23.449Z,98181.28
2022-10-20T21:56:50.623Z,98176.75
2022-10-20T21:59:26.768Z,98185.50
2022-10-20T22:01:56.968Z,98173.84
2022-10-20T22:04:27.104Z,98172.75
2022-10-20T22:06:55.004Z,98163.91
2022-10-20T22:09:22.606Z,98161.00
2022-10-20T22:11:55.015Z,98144.63
2022-10-20T22:14:22.398Z,98157.78
2022-10-20T22:16:49.570Z,98162.97
2022-10-20T22:19:20.926Z,98165.91
2022-10-20T22:21:51.584Z,98159.72
2022-10-20T22:24:20.774Z,98145.31
2022-10-20T22:26:51.561Z,98145.66
2022-10-20T22:29:20.710Z,98137.00
2022-10-20T22:31:47.881Z,98131.38
2022-10-20T22:34:14.833Z,98130.66
2022-10-20T22:36:44.086Z,98131.78
2022-10-20T22:41:40.398Z,98120.41
2022-10-20T22:44:07.529Z,98119.38
2022-10-20T22:46:34.788Z,98123.72
2022-10-20T22:49:01.991Z,98110.78
2022-10-20T22:51:28.970Z,98099.63
2022-10-20T22:53:55.904Z,98113.75
2022-10-20T22:56:23.791Z,98122.84
2022-10-20T22:58:53.030Z,98113.88
2022-10-20T23:01:22.316Z,98109.28
2022-10-20T23:03:49.609Z,98110.44
2022-10-20T23:06:20.734Z,98109.00
2022-10-20T23:08:51.831Z,98118.16
2022-10-20T23:11:19.965Z,98115.63
2022-10-20T23:13:47.901Z,98115.03
2022-10-20T23:16:15.217Z,98111.47
2022-10-20T23:18:42.869Z,98109.94
2022-10-20T23:21:10.228Z,98101.59
2022-10-20T23:23:37.718Z,98100.31
2022-10-20T23:26:06.731Z,98093.56
2022-10-20T23:28:34.695Z,98093.75
2022-10-20T23:31:14.200Z,98094.91
2022-10-20T23:33:43.753Z,98098.34
2022-10-20T23:36:12.347Z,98098.53
2022-10-20T23:38:39.525Z,98104.25
2022-10-20T23:41:07.124Z,98106.47
2022-10-20T23:46:07.353Z,98106.94
2022-10-20T23:48:34.626Z,98101.09
2022-10-20T23:51:01.600Z,98090.91
2022-10-20T23:53:29.037Z,98096.38
2022-10-20T23:55:56.019Z,98089.84
2022-10-20T23:58:23.260Z,98097.34
